createdAt,value
2017-09-06T00:00:41.820Z,72.74
2017-09-06T00:01:52.386Z,72.74
2017-09-06T00:03:02.835Z,72.74
2017-09-06T00:04:13.614Z,72.94
2017-09-06T00:05:24.074Z,73.22
2017-09-06T00:06:34.232Z,73.22
2017-09-06T00:07:44.701Z,72.94
2017-09-06T00:08:56.234Z,72.84
2017-09-06T00:10:06.977Z,72.74
2017-09-06T00:11:17.680Z,73.03
2017-09-06T00:12:27.682Z,72.84
2017-09-06T00:13:38.151Z,73.13
2017-09-06T00:14:47.977Z,72.84
2017-09-06T00:15:58.680Z,73.03
2017-09-06T00:17:09.158Z,73.22
2017-09-06T00:18:19.650Z,72.84
2017-09-06T00:19:30.182Z,73.61
2017-09-06T00:20:40.724Z,73.51
2017-09-06T00:21:51.449Z,73.47
2017-09-06T00:23:01.922Z,73.38
2017-09-06T00:24:12.423Z,73.9
2017-09-06T00:25:22.877Z,73.67
2017-09-06T00:26:33.630Z,73.71
2017-09-06T00:27:44.526Z,73.8
2017-09-06T00:28:54.977Z,73.77
2017-09-06T00:30:05.421Z,74.05
2017-09-06T00:31:15.967Z,73.8
2017-09-06T00:32:26.530Z,73.96
2017-09-06T00:33:37.229Z,73.96
2017-09-06T00:34:47.685Z,73.57
2017-09-06T00:35:58.187Z,73.67
2017-09-06T00:37:08.705Z,73.96
2017-09-06T00:38:19.164Z,74.05
2017-09-06T00:39:29.877Z,73.86
2017-09-06T00:40:40.362Z,74.19
2017-09-06T00:41:50.811Z,74.29
2017-09-06T00:43:01.293Z,74.29
2017-09-06T00:44:11.781Z,74.19
2017-09-06T00:45:22.494Z,74.09
2017-09-06T00:46:33.075Z,74.19
2017-09-06T00:47:43.511Z,74.19
2017-09-06T00:48:53.763Z,74.09
2017-09-06T00:50:04.357Z,74.15
2017-09-06T00:51:14.511Z,74.19
2017-09-06T00:52:24.961Z,74.29
2017-09-06T00:53:35.454Z,74.63
2017-09-06T00:54:45.895Z,74.34
2017-09-06T00:55:56.423Z,74.48
2017-09-06T00:57:07.150Z,74.29
2017-09-06T00:58:17.635Z,74.25
2017-09-06T00:59:28.094Z,74.29
2017-09-06T01:00:38.556Z,74.48
2017-09-06T01:01:49.014Z,74.48
2017-09-06T01:02:59.731Z,74.48
2017-09-06T01:04:10.248Z,74.38
2017-09-06T01:05:20.391Z,74.34
2017-09-06T01:06:30.593Z,74.54
2017-09-06T01:07:41.066Z,74.76
2017-09-06T01:08:51.817Z,74.73
2017-09-06T01:10:02.287Z,74.38
2017-09-06T01:11:12.778Z,74.57
2017-09-06T01:12:23.259Z,74.48
2017-09-06T01:13:33.723Z,74.29
2017-09-06T01:14:44.585Z,74.57
2017-09-06T01:15:54.283Z,74.67
2017-09-06T01:17:04.807Z,74.57
2017-09-06T01:18:14.948Z,74.76
2017-09-06T01:19:24.966Z,74.67
2017-09-06T01:20:35.721Z,74.67
2017-09-06T01:21:46.197Z,74.48
2017-09-06T01:22:56.714Z,74.48
2017-09-06T01:24:07.183Z,74.48
2017-09-06T01:25:17.650Z,74.57
2017-09-06T01:26:28.378Z,74.48
2017-09-06T01:27:38.844Z,74.67
2017-09-06T01:28:49.412Z,75.05
2017-09-06T01:29:59.878Z,74.96
2017-09-06T01:31:10.355Z,75.02
2017-09-06T01:32:20.826Z,74.96
2017-09-06T01:33:30.994Z,74.96
2017-09-06T01:34:41.448Z,74.76
2017-09-06T01:35:51.906Z,74.63
2017-09-06T01:37:02.453Z,74.82
2017-09-06T01:38:13.190Z,74.82
2017-09-06T01:39:23.774Z,74.57
2017-09-06T01:40:34.233Z,75.24
2017-09-06T01:41:44.711Z,75.05
2017-09-06T01:42:56.178Z,75.05
2017-09-06T01:44:07.006Z,74.76
2017-09-06T01:45:17.493Z,75.15
2017-09-06T01:46:28.074Z,75.4
2017-09-06T01:47:38.573Z,75.44
2017-09-06T01:48:49.035Z,75.44
2017-09-06T01:49:59.794Z,75.63
2017-09-06T01:51:10.120Z,75.44
2017-09-06T01:52:20.603Z,75.15
2017-09-06T01:53:31.069Z,75.15
2017-09-06T01:54:42.573Z,74.96
2017-09-06T01:55:53.263Z,75.15
2017-09-06T01:57:03.709Z,75.24
2017-09-06T01:58:14.262Z,74.67
2017-09-06T01:59:24.783Z,74.86
2017-09-06T02:00:35.277Z,74.67
2017-09-06T02:01:45.996Z,74.57
2017-09-06T02:02:56.582Z,74.96
2017-09-06T02:04:06.346Z,75.15
2017-09-06T02:05:16.873Z,74.86
2017-09-06T02:06:27.337Z,75.15
2017-09-06T02:07:38.162Z,74.96
2017-09-06T02:08:48.639Z,75.44
2017-09-06T02:09:59.112Z,74.86
2017-09-06T02:11:09.575Z,74.96
2017-09-06T02:12:20.027Z,74.57
2017-09-06T02:13:30.790Z,74.96
2017-09-06T02:14:41.259Z,74.96
2017-09-06T02:15:51.735Z,74.96
2017-09-06T02:17:02.198Z,74.76
2017-09-06T02:18:12.644Z,74.57
2017-09-06T02:19:23.427Z,75.15
2017-09-06T02:20:33.890Z,74.96
2017-09-06T02:21:45.011Z,75.34
2017-09-06T02:22:55.184Z,74.86
2017-09-06T02:24:05.665Z,74.96
2017-09-06T02:25:16.394Z,74.96
2017-09-06T02:26:26.861Z,74.86
2017-09-06T02:27:37.006Z,75.54
2017-09-06T02:28:47.456Z,75.44
2017-09-06T02:29:58.036Z,74.54
2017-09-06T02:31:08.767Z,75.15
2017-09-06T02:32:19.226Z,75.31
2017-09-06T02:33:29.697Z,75.21
2017-09-06T02:34:40.136Z,75.31
2017-09-06T02:35:50.631Z,75.31
2017-09-06T02:37:01.365Z,75.31
2017-09-06T02:38:11.813Z,75.11
2017-09-06T02:39:22.280Z,75.11
2017-09-06T02:40:32.730Z,75.11
2017-09-06T02:41:43.215Z,74.92
2017-09-06T02:42:53.915Z,75.02
2017-09-06T02:44:03.610Z,75.21
2017-09-06T02:45:14.056Z,75.69
2017-09-06T02:46:24.572Z,75.69
2017-09-06T02:47:35.269Z,75.69
2017-09-06T02:48:45.671Z,75.69
2017-09-06T02:49:56.224Z,75.88
2017-09-06T02:51:06.679Z,75.79
2017-09-06T02:52:17.139Z,75.59
2017-09-06T02:53:27.610Z,75.49
2017-09-06T02:54:38.307Z,76.17
2017-09-06T02:55:48.842Z,76.26
2017-09-06T02:56:59.299Z,76.17
2017-09-06T02:58:09.770Z,76.17
2017-09-06T02:59:20.362Z,76.07
2017-09-06T03:00:31.070Z,76.36
2017-09-06T03:01:41.219Z,76.46
2017-09-06T03:02:51.680Z,76.4
2017-09-06T03:04:02.275Z,76.26
2017-09-06T03:05:12.403Z,76.5
2017-09-06T03:06:23.177Z,76.01
2017-09-06T03:07:33.320Z,76.01
2017-09-06T03:08:43.781Z,76.4
2017-09-06T03:09:54.348Z,76.11
2017-09-06T03:11:04.887Z,76.11
2017-09-06T03:12:15.725Z,76.56
2017-09-06T03:13:26.186Z,76.4
2017-09-06T03:14:36.658Z,76.4
2017-09-06T03:15:47.106Z,76.59
2017-09-06T03:16:57.640Z,76.31
2017-09-06T03:18:08.380Z,76.11
2017-09-06T03:19:18.524Z,76.4
2017-09-06T03:20:28.975Z,76.01
2017-09-06T03:21:39.168Z,76.11
2017-09-06T03:22:49.708Z,76.26
2017-09-06T03:24:00.418Z,76.36
2017-09-06T03:25:10.878Z,75.88
2017-09-06T03:26:21.508Z,76.17
2017-09-06T03:27:31.962Z,76.46
2017-09-06T03:28:42.428Z,75.98
2017-09-06T03:29:52.923Z,76.26
2017-09-06T03:31:03.557Z,76.46
2017-09-06T03:32:14.016Z,76.75
2017-09-06T03:33:24.722Z,76.65
2017-09-06T03:34:34.886Z,76.46
2017-09-06T03:35:45.599Z,76.84
2017-09-06T03:36:56.076Z,76.65
2017-09-06T03:38:06.571Z,76.65
2017-09-06T03:39:17.068Z,76.56
2017-09-06T03:40:27.505Z,76.75
2017-09-06T03:41:38.199Z,76.84
2017-09-06T03:42:48.370Z,76.65
2017-09-06T03:43:58.928Z,76.75
2017-09-06T03:45:09.384Z,77.13
2017-09-06T03:46:19.957Z,77.13
2017-09-06T03:47:30.490Z,76.81
2017-09-06T03:48:41.010Z,76.75
2017-09-06T03:49:51.489Z,76.84
2017-09-06T03:51:01.938Z,77
2017-09-06T03:52:12.403Z,77
2017-09-06T03:53:23.110Z,76.75
2017-09-06T03:54:33.566Z,76.56
2017-09-06T03:55:44.045Z,77.04
2017-09-06T03:56:54.536Z,76.94
2017-09-06T03:58:04.973Z,77.13
2017-09-06T03:59:15.279Z,77.38
2017-09-06T04:00:25.101Z,77
2017-09-06T04:01:35.537Z,77.29
2017-09-06T04:02:46.060Z,77.48
2017-09-06T04:03:56.517Z,77.61
2017-09-06T04:05:07.260Z,77.38
2017-09-06T04:06:17.717Z,77.96
2017-09-06T04:07:28.196Z,78.09
2017-09-06T04:08:38.319Z,77.71
2017-09-06T04:09:48.789Z,77.61
2017-09-06T04:10:59.552Z,77.71
2017-09-06T04:12:10.008Z,77.71
2017-09-06T04:13:20.501Z,77.81
2017-09-06T04:14:30.954Z,77.71
2017-09-06T04:15:41.418Z,77.51
2017-09-06T04:16:52.113Z,78
2017-09-06T04:18:02.286Z,77.61
2017-09-06T04:19:12.724Z,77.71
2017-09-06T04:20:23.252Z,77.71
2017-09-06T04:21:33.753Z,78.09
2017-09-06T04:22:44.455Z,78
2017-09-06T04:23:55.005Z,78
2017-09-06T04:25:05.510Z,78.09
2017-09-06T04:26:15.963Z,78.09
2017-09-06T04:27:26.537Z,78.09
2017-09-06T04:28:37.141Z,78.09
2017-09-06T04:29:47.599Z,78
2017-09-06T04:30:57.574Z,78.38
2017-09-06T04:32:08.065Z,78.09
2017-09-06T04:33:18.667Z,77.81
2017-09-06T04:34:29.382Z,78
2017-09-06T04:35:40.104Z,77.81
2017-09-06T04:36:50.573Z,78.9
2017-09-06T04:38:01.034Z,78.58
2017-09-06T04:39:11.474Z,78.42
2017-09-06T04:40:22.215Z,78.52
2017-09-06T04:41:32.299Z,78.67
2017-09-06T04:43:14.640Z,78.77
2017-09-06T04:44:25.110Z,78.86
2017-09-06T04:45:35.942Z,78.96
2017-09-06T04:46:46.413Z,79
2017-09-06T04:47:56.982Z,79.25
2017-09-06T04:49:07.695Z,79.28
2017-09-06T04:50:17.832Z,79.19
2017-09-06T04:51:28.566Z,78.96
2017-09-06T04:52:39.038Z,78.9
2017-09-06T04:53:49.574Z,79
2017-09-06T04:55:00.021Z,79
2017-09-06T04:56:10.526Z,79.19
2017-09-06T04:57:21.239Z,79
2017-09-06T04:58:31.377Z,78.9
2017-09-06T04:59:41.871Z,79.25
2017-09-06T05:00:52.341Z,79.1
2017-09-06T05:02:03.053Z,79.28
2017-09-06T05:03:13.780Z,79.1
2017-09-06T05:04:24.383Z,79.1
2017-09-06T05:05:34.850Z,79.28
2017-09-06T05:06:45.326Z,79
2017-09-06T05:07:55.813Z,79.19
2017-09-06T05:09:06.776Z,78.81
2017-09-06T05:10:17.241Z,79.1
2017-09-06T05:11:27.788Z,78.42
2017-09-06T05:12:38.009Z,78.96
2017-09-06T05:13:48.193Z,78.58
2017-09-06T05:14:58.929Z,78.67
2017-09-06T05:16:09.401Z,78.81
2017-09-06T05:17:19.893Z,78.77
2017-09-06T05:18:30.347Z,78.71
2017-09-06T05:19:40.817Z,78.77
2017-09-06T05:20:51.570Z,79
2017-09-06T05:22:02.050Z,78.86
2017-09-06T05:23:12.537Z,79.25
2017-09-06T05:24:23.132Z,79.15
2017-09-06T05:25:33.637Z,78.9
2017-09-06T05:26:44.590Z,79.05
2017-09-06T05:27:55.058Z,78.9
2017-09-06T05:29:05.560Z,78.71
2017-09-06T05:30:16.090Z,78.71
2017-09-06T05:31:26.561Z,78.71
2017-09-06T05:32:37.289Z,78.71
2017-09-06T05:33:47.910Z,78.9
2017-09-06T05:34:58.076Z,79.1
2017-09-06T05:36:08.539Z,79.28
2017-09-06T05:37:19.063Z,79
2017-09-06T05:38:29.796Z,78.9
2017-09-06T05:39:40.257Z,79
2017-09-06T05:40:50.726Z,78.9
2017-09-06T05:42:00.903Z,79.19
2017-09-06T05:43:11.461Z,79.28
2017-09-06T05:44:21.858Z,79.28
2017-09-06T05:45:32.329Z,78.9
2017-09-06T05:46:42.800Z,78.81
2017-09-06T05:47:53.583Z,79
2017-09-06T05:49:04.047Z,79
2017-09-06T05:50:14.445Z,79.58
2017-09-06T05:51:24.999Z,79.81
2017-09-06T05:52:35.518Z,78.94
2017-09-06T05:53:45.978Z,79.13
2017-09-06T05:54:56.466Z,79.33
2017-09-06T05:56:07.256Z,79.33
2017-09-06T05:57:17.723Z,79.03
2017-09-06T05:58:28.309Z,78.75
2017-09-06T05:59:38.756Z,78.65
2017-09-06T06:00:48.923Z,78.56
2017-09-06T06:01:59.631Z,78.94
2017-09-06T06:03:10.132Z,77.98
2017-09-06T06:04:20.569Z,78.17
2017-09-06T06:05:31.044Z,78.02
2017-09-06T06:06:41.337Z,78.02
2017-09-06T06:07:52.043Z,78.02
2017-09-06T06:09:02.498Z,78.21
2017-09-06T06:10:13.008Z,78.21
2017-09-06T06:11:23.474Z,78.11
2017-09-06T06:12:33.971Z,78.11
2017-09-06T06:13:44.702Z,78.11
2017-09-06T06:14:55.181Z,77.83
2017-09-06T06:16:05.742Z,77.76
2017-09-06T06:17:15.882Z,77.63
2017-09-06T06:18:26.341Z,77.48
2017-09-06T06:19:37.044Z,77.09
2017-09-06T06:20:47.522Z,77.76
2017-09-06T06:21:57.986Z,77.48
2017-09-06T06:23:08.146Z,77.28
2017-09-06T06:24:18.294Z,76.8
2017-09-06T06:25:29.062Z,77.09
2017-09-06T06:26:39.542Z,77.28
2017-09-06T06:27:50.064Z,76.8
2017-09-06T06:29:00.529Z,76.84
2017-09-06T06:30:10.705Z,76.51
2017-09-06T06:31:21.395Z,76.61
2017-09-06T06:32:31.874Z,76.26
2017-09-06T06:33:42.364Z,76.42
2017-09-06T06:34:52.962Z,76.26
2017-09-06T06:36:03.470Z,76.26
2017-09-06T06:37:14.294Z,76.45
2017-09-06T06:38:24.462Z,75.88
2017-09-06T06:39:34.940Z,75.88
2017-09-06T06:40:45.526Z,75.78
2017-09-06T06:41:56.010Z,75.3
2017-09-06T06:43:06.809Z,75.49
2017-09-06T06:44:17.266Z,75.2
2017-09-06T06:45:27.474Z,75.49
2017-09-06T06:46:37.946Z,75.05
2017-09-06T06:47:48.443Z,75.14
2017-09-06T06:49:30.991Z,75.05
2017-09-06T06:50:41.549Z,74.85
2017-09-06T06:51:52.033Z,74.95
2017-09-06T06:53:02.497Z,74.66
2017-09-06T06:54:13.299Z,74.27
2017-09-06T06:55:23.811Z,74.57
2017-09-06T06:56:33.965Z,74.37
2017-09-06T06:57:44.151Z,74.47
2017-09-06T06:58:54.316Z,74.47
2017-09-06T07:00:05.043Z,74.37
2017-09-06T07:01:15.542Z,74.66
2017-09-06T07:02:26.102Z,74.66
2017-09-06T07:03:36.547Z,74.57
2017-09-06T07:04:47.016Z,74.57
2017-09-06T07:05:57.817Z,74.52
2017-09-06T07:07:07.991Z,74.43
2017-09-06T07:08:18.462Z,74.52
2017-09-06T07:09:28.992Z,74.62
2017-09-06T07:10:39.450Z,74.62
2017-09-06T07:11:49.834Z,74.43
2017-09-06T07:13:00.344Z,74.62
2017-09-06T07:14:10.815Z,74.49
2017-09-06T07:15:21.267Z,74.58
2017-09-06T07:16:31.778Z,74.4
2017-09-06T07:17:42.499Z,74.4
2017-09-06T07:18:52.671Z,75.16
2017-09-06T07:20:03.131Z,75.07
2017-09-06T07:21:13.678Z,75.26
2017-09-06T07:22:24.174Z,75.23
2017-09-06T07:23:34.578Z,76.09
2017-09-06T07:24:45.033Z,76.67
2017-09-06T07:25:55.487Z,76.76
2017-09-06T07:27:05.974Z,76.96
2017-09-06T07:28:16.450Z,77.83
2017-09-06T07:29:27.189Z,78.17
2017-09-06T07:30:37.664Z,78.75
2017-09-06T07:31:48.134Z,79.13
2017-09-06T07:32:58.792Z,79.71
2017-09-06T07:34:08.808Z,80.1
2017-09-06T07:35:19.563Z,80.29
2017-09-06T07:36:30.055Z,80.38
2017-09-06T07:37:40.584Z,80.96
2017-09-06T07:38:50.764Z,80.96
2017-09-06T07:40:01.358Z,81.93
2017-09-06T07:41:12.364Z,81.35
2017-09-06T07:42:22.405Z,81.73
2017-09-06T07:43:32.865Z,81.79
2017-09-06T07:44:43.453Z,81.4
2017-09-06T07:45:53.980Z,81.7
2017-09-06T07:47:04.716Z,81.45
2017-09-06T07:48:15.206Z,82.02
2017-09-06T07:49:25.748Z,81.45
2017-09-06T07:50:36.243Z,82.17
2017-09-06T07:51:46.711Z,82.17
2017-09-06T07:52:57.477Z,82.17
2017-09-06T07:54:07.935Z,82.17
2017-09-06T07:55:18.411Z,82.08
2017-09-06T07:56:28.435Z,82.37
2017-09-06T07:57:38.892Z,81.6
2017-09-06T07:58:49.400Z,81.98
2017-09-06T07:59:59.973Z,82.46
2017-09-06T08:01:10.472Z,82.27
2017-09-06T08:02:20.640Z,82.37
2017-09-06T08:03:31.157Z,82.65
2017-09-06T08:04:41.578Z,81.98
2017-09-06T08:05:52.107Z,82.56
2017-09-06T08:07:02.270Z,82.17
2017-09-06T08:08:12.720Z,81.98
2017-09-06T08:09:23.207Z,82.65
2017-09-06T08:10:33.960Z,82.46
2017-09-06T08:11:44.421Z,82.75
2017-09-06T08:12:54.869Z,83.23
2017-09-06T08:14:05.040Z,83.42
2017-09-06T08:15:15.606Z,83.52
2017-09-06T08:16:26.299Z,82.65
2017-09-06T08:17:36.887Z,82.75
2017-09-06T08:18:47.358Z,82.65
2017-09-06T08:19:57.873Z,82.56
2017-09-06T08:21:08.338Z,82.75
2017-09-06T08:22:19.057Z,82.56
2017-09-06T08:23:29.000Z,82.85
2017-09-06T08:24:39.273Z,82.65
2017-09-06T08:25:49.848Z,82.65
2017-09-06T08:27:00.325Z,82.75
2017-09-06T08:28:10.835Z,82.65
2017-09-06T08:29:21.298Z,82.75
2017-09-06T08:30:31.846Z,82.75
2017-09-06T08:31:42.322Z,82.85
2017-09-06T08:32:52.785Z,83.33
2017-09-06T08:34:03.484Z,83.33
2017-09-06T08:35:14.167Z,83.52
2017-09-06T08:36:24.625Z,82.75
2017-09-06T08:37:34.785Z,82.46
2017-09-06T08:38:45.344Z,82.7
2017-09-06T08:39:56.094Z,82.56
2017-09-06T08:41:05.790Z,82.79
2017-09-06T08:42:16.281Z,82.79
2017-09-06T08:43:27.716Z,82.5
2017-09-06T08:44:38.261Z,82.6
2017-09-06T08:45:49.068Z,82.31
2017-09-06T08:46:59.607Z,82.21
2017-09-06T08:48:10.075Z,82.12
2017-09-06T08:49:21.527Z,82.31
2017-09-06T08:50:32.240Z,82.31
2017-09-06T08:51:42.967Z,82.21
2017-09-06T08:52:53.422Z,82.21
2017-09-06T08:54:03.914Z,81.73
2017-09-06T08:55:14.392Z,81.96
2017-09-06T08:56:25.011Z,81.2
2017-09-06T08:57:35.769Z,80.91
2017-09-06T08:58:46.251Z,80.91
2017-09-06T08:59:56.426Z,81.01
2017-09-06T09:01:06.940Z,80.66
2017-09-06T09:02:17.442Z,80.56
2017-09-06T09:03:28.211Z,80.56
2017-09-06T09:04:38.666Z,80.41
2017-09-06T09:05:49.196Z,79.74
2017-09-06T09:06:59.387Z,79.35
2017-09-06T09:08:09.838Z,79.25
2017-09-06T09:09:20.584Z,78.58
2017-09-06T09:10:31.050Z,78.96
2017-09-06T09:11:41.522Z,78.96
2017-09-06T09:12:52.105Z,78.96
2017-09-06T09:14:02.609Z,78.29
2017-09-06T09:15:13.320Z,78.19
2017-09-06T09:16:23.810Z,78.19
2017-09-06T09:17:34.564Z,77.9
2017-09-06T09:18:45.074Z,77.33
2017-09-06T09:19:54.910Z,77.61
2017-09-06T09:21:05.876Z,77.23
2017-09-06T09:22:16.344Z,77.03
2017-09-06T09:23:27.081Z,77.13
2017-09-06T09:24:37.676Z,76.88
2017-09-06T09:25:48.168Z,76.3
2017-09-06T09:26:58.577Z,76.1
2017-09-06T09:28:09.032Z,76.1
2017-09-06T09:29:19.501Z,75.53
2017-09-06T09:30:29.503Z,74.66
2017-09-06T09:31:39.966Z,75.24
2017-09-06T09:32:50.744Z,74.66
2017-09-06T09:34:01.314Z,74.66
2017-09-06T09:35:11.773Z,74.57
2017-09-06T09:36:22.267Z,74.47
2017-09-06T09:37:32.755Z,74.02
2017-09-06T09:38:43.481Z,73.83
2017-09-06T09:39:54.040Z,73.06
2017-09-06T09:41:04.559Z,72.52
2017-09-06T09:42:15.012Z,72.55
2017-09-06T09:43:25.559Z,71.91
2017-09-06T09:44:36.272Z,70.88
2017-09-06T09:45:46.299Z,69.56
2017-09-06T09:46:56.883Z,68.66
2017-09-06T09:48:07.438Z,67.6
2017-09-06T09:49:18.084Z,67.24
2017-09-06T09:50:28.517Z,66.17
2017-09-06T09:51:39.097Z,65.53
2017-09-06T09:52:49.309Z,64.04
2017-09-06T09:53:59.812Z,62.04
2017-09-06T09:55:10.349Z,61.19
2017-09-06T09:56:21.140Z,60.93
2017-09-06T09:57:31.161Z,60.64
2017-09-06T09:58:41.627Z,58.62
2017-09-06T09:59:52.124Z,58.4
2017-09-06T10:01:02.605Z,58.89
2017-09-06T10:02:13.386Z,58.67
2017-09-06T10:03:23.883Z,59.05
2017-09-06T10:04:34.455Z,59.31
2017-09-06T10:05:44.944Z,58.93
2017-09-06T10:06:55.498Z,59.19
2017-09-06T10:08:06.243Z,59.64
2017-09-06T10:09:16.919Z,59.91
2017-09-06T10:10:27.428Z,60.68
2017-09-06T10:11:37.254Z,60.65
2017-09-06T10:12:47.707Z,60.91
2017-09-06T10:13:58.534Z,60.91
2017-09-06T10:15:09.015Z,61.49
2017-09-06T10:16:19.496Z,62.17
2017-09-06T10:17:29.989Z,62.43
2017-09-06T10:18:40.461Z,62.34
2017-09-06T10:19:51.293Z,62.11
2017-09-06T10:21:01.492Z,62.24
2017-09-06T10:22:11.975Z,61.79
2017-09-06T10:23:22.485Z,61.98
2017-09-06T10:24:32.807Z,62.07
2017-09-06T10:25:43.644Z,61.4
2017-09-06T10:26:54.133Z,61.49
2017-09-06T10:28:04.714Z,61.04
2017-09-06T10:29:15.174Z,60.94
2017-09-06T10:30:25.709Z,60.46
2017-09-06T10:31:37.411Z,60.46
2017-09-06T10:32:47.873Z,58.39
2017-09-06T10:33:58.369Z,58.19
2017-09-06T10:35:08.955Z,57.34
2017-09-06T10:36:19.436Z,56.98
2017-09-06T10:37:30.300Z,56.14
2017-09-06T10:38:40.782Z,54.05
2017-09-06T10:39:50.945Z,54.38
2017-09-06T10:41:02.432Z,54.08
2017-09-06T10:42:12.902Z,54.15
2017-09-06T10:43:23.679Z,55.1
2017-09-06T10:44:34.160Z,54.97
2017-09-06T10:45:44.416Z,54.2
2017-09-06T10:46:54.600Z,54.75
2017-09-06T10:48:05.088Z,55.14
2017-09-06T10:49:15.804Z,55.41
2017-09-06T10:50:26.326Z,55.6
2017-09-06T10:51:36.909Z,55.99
2017-09-06T10:52:47.401Z,55.87
2017-09-06T10:53:58.031Z,56.15
2017-09-06T10:55:08.845Z,56.35
2017-09-06T10:56:19.339Z,55.96
2017-09-06T10:57:29.501Z,55.87
2017-09-06T10:58:40.001Z,55.67
2017-09-06T10:59:50.589Z,55.57
2017-09-06T11:01:01.350Z,55.87
2017-09-06T11:02:11.996Z,55.87
2017-09-06T11:03:22.492Z,55.54
2017-09-06T11:04:33.016Z,55.64
2017-09-06T11:05:43.515Z,55.81
2017-09-06T11:06:54.255Z,56.39
2017-09-06T11:08:04.763Z,56.46
2017-09-06T11:09:15.276Z,56.85
2017-09-06T11:10:25.795Z,56.62
2017-09-06T11:11:36.333Z,56.72
2017-09-06T11:12:47.186Z,57.18
2017-09-06T11:13:57.648Z,57.28
2017-09-06T11:15:08.137Z,57.76
2017-09-06T11:16:18.723Z,58.24
2017-09-06T11:17:29.436Z,58.44
2017-09-06T11:18:39.915Z,58.7
2017-09-06T11:19:49.921Z,59.08
2017-09-06T11:21:00.416Z,59.47
2017-09-06T11:22:10.893Z,59.76
2017-09-06T11:23:21.406Z,59.47
2017-09-06T11:24:31.712Z,59.76
2017-09-06T11:25:42.206Z,59.76
2017-09-06T11:26:52.774Z,60.21
2017-09-06T11:28:03.269Z,60.05
2017-09-06T11:29:13.840Z,60.05
2017-09-06T11:30:24.577Z,60.11
2017-09-06T11:31:35.128Z,60.31
2017-09-06T11:32:45.300Z,60.31
2017-09-06T11:33:55.769Z,60.69
2017-09-06T11:35:05.989Z,60.79
2017-09-06T11:36:16.736Z,60.79
2017-09-06T11:37:27.470Z,60.69
2017-09-06T11:38:37.938Z,60.44
2017-09-06T11:39:48.077Z,60.37
2017-09-06T11:40:58.552Z,60.27
2017-09-06T11:42:09.259Z,59.79
2017-09-06T11:43:19.735Z,60.01
2017-09-06T11:44:30.297Z,59.91
2017-09-06T11:45:40.801Z,59.59
2017-09-06T11:46:51.316Z,59.5
2017-09-06T11:48:02.058Z,59.11
2017-09-06T11:49:12.535Z,59.14
2017-09-06T11:50:23.088Z,57.76
2017-09-06T11:51:33.251Z,58.04
2017-09-06T11:52:43.748Z,57.4
2017-09-06T11:53:54.485Z,57.59
2017-09-06T11:55:04.994Z,57.3
2017-09-06T11:56:15.465Z,56.26
2017-09-06T11:57:25.978Z,56.26
2017-09-06T11:58:36.492Z,55.2
2017-09-06T11:59:47.195Z,55.68
2017-09-06T12:00:58.727Z,55.3
2017-09-06T12:02:09.220Z,55.78
2017-09-06T12:03:19.673Z,55.22
2017-09-06T12:04:30.178Z,54.81
2017-09-06T12:05:40.586Z,55.68
2017-09-06T12:06:51.076Z,55.88
2017-09-06T12:08:01.531Z,56.36
2017-09-06T12:09:12.107Z,56.26
2017-09-06T12:10:22.605Z,56.52
2017-09-06T12:11:33.367Z,56.82
2017-09-06T12:12:43.912Z,57.4
2017-09-06T12:13:54.440Z,57.4
2017-09-06T12:15:04.962Z,57.2
2017-09-06T12:16:15.463Z,57.3
2017-09-06T12:17:25.964Z,57.2
2017-09-06T12:18:36.424Z,57.79
2017-09-06T12:19:46.614Z,57.59
2017-09-06T12:20:57.157Z,57.98
2017-09-06T12:22:07.041Z,57.66
2017-09-06T12:23:17.819Z,58.04
2017-09-06T12:24:28.289Z,58.34
2017-09-06T12:25:38.781Z,58.63
2017-09-06T12:26:49.367Z,58.72
2017-09-06T12:27:59.838Z,58.92
2017-09-06T12:29:10.588Z,59.01
2017-09-06T12:30:21.112Z,58.92
2017-09-06T12:31:31.623Z,59.66
2017-09-06T12:32:42.072Z,59.76
2017-09-06T12:33:52.567Z,60.53
2017-09-06T12:35:03.319Z,61.4
2017-09-06T12:36:13.781Z,61.66
2017-09-06T12:37:23.928Z,63.02
2017-09-06T12:38:34.405Z,63.76
2017-09-06T12:39:44.877Z,64.24
2017-09-06T12:40:55.833Z,66.08
2017-09-06T12:42:06.338Z,67.01
2017-09-06T12:43:16.822Z,67.88
2017-09-06T12:44:27.299Z,68.17
2017-09-06T12:45:37.804Z,67.88
2017-09-06T12:46:48.558Z,70.16
2017-09-06T12:47:59.069Z,69.87
2017-09-06T12:49:09.524Z,69.1
2017-09-06T12:50:20.217Z,68.68
2017-09-06T12:51:30.707Z,68.59
2017-09-06T12:52:41.425Z,68.97
2017-09-06T12:53:51.917Z,68.59
2017-09-06T12:55:02.503Z,69.16
2017-09-06T12:56:13.064Z,69.64
2017-09-06T12:57:23.532Z,69.23
2017-09-06T12:58:33.964Z,70
2017-09-06T12:59:44.481Z,69.23
2017-09-06T13:00:54.987Z,70.09
2017-09-06T13:02:05.484Z,70.96
2017-09-06T13:03:15.991Z,71.25
2017-09-06T13:04:26.556Z,71.64
2017-09-06T13:05:37.057Z,72.31
2017-09-06T13:06:47.654Z,73.05
2017-09-06T13:07:58.137Z,72.95
2017-09-06T13:09:08.994Z,73.72
2017-09-06T13:10:19.724Z,74.4
2017-09-06T13:11:30.170Z,75.42
2017-09-06T13:12:40.354Z,75.42
2017-09-06T13:13:50.967Z,74.93
2017-09-06T13:15:01.451Z,75.23
2017-09-06T13:16:12.197Z,75.51
2017-09-06T13:17:22.708Z,75.8
2017-09-06T13:18:33.237Z,76.86
2017-09-06T13:19:43.726Z,76.38
2017-09-06T13:20:54.258Z,76.48
2017-09-06T13:22:04.971Z,76.96
2017-09-06T13:23:15.133Z,76.76
2017-09-06T13:24:25.595Z,77.06
2017-09-06T13:25:36.071Z,76.96
2017-09-06T13:26:46.549Z,77.25
2017-09-06T13:27:56.950Z,76.96
2017-09-06T13:29:07.453Z,76.96
2017-09-06T13:30:17.958Z,77.44
2017-09-06T13:31:28.181Z,76.76
2017-09-06T13:32:38.668Z,76.61
2017-09-06T13:33:49.059Z,75.93
2017-09-06T13:34:59.535Z,76.26
2017-09-06T13:36:10.144Z,75.88
2017-09-06T13:37:20.695Z,74.72
2017-09-06T13:38:31.164Z,74.95
2017-09-06T13:39:41.997Z,74.47
2017-09-06T13:40:52.473Z,74.08
2017-09-06T13:42:02.657Z,73.99
2017-09-06T13:43:12.901Z,73.6
2017-09-06T13:44:23.072Z,72.89
2017-09-06T13:45:33.871Z,72.89
2017-09-06T13:46:44.345Z,73.08
2017-09-06T13:47:54.838Z,72.79
2017-09-06T13:49:05.355Z,72.85
2017-09-06T13:50:15.882Z,73.72
2017-09-06T13:51:26.667Z,73.82
2017-09-06T13:52:37.156Z,73.82
2017-09-06T13:53:47.642Z,74.2
2017-09-06T13:54:58.100Z,74.1
2017-09-06T13:56:08.607Z,74.36
2017-09-06T13:57:19.344Z,74.45
2017-09-06T13:58:29.808Z,74.45
2017-09-06T13:59:40.332Z,75.13
2017-09-06T14:00:50.830Z,74.93
2017-09-06T14:02:01.344Z,75.03
2017-09-06T14:03:12.280Z,75.03
2017-09-06T14:04:22.758Z,75.61
2017-09-06T14:05:33.227Z,75.03
2017-09-06T14:06:43.386Z,74.93
2017-09-06T14:07:53.545Z,74.84
2017-09-06T14:09:04.282Z,74.55
2017-09-06T14:10:14.781Z,73.88
2017-09-06T14:11:25.270Z,73.49
2017-09-06T14:12:35.756Z,73.68
2017-09-06T14:13:45.960Z,72.91
2017-09-06T14:14:56.675Z,72.91
2017-09-06T14:16:07.257Z,72.43
2017-09-06T14:17:17.757Z,72.43
2017-09-06T14:18:28.322Z,72.05
2017-09-06T14:19:39.757Z,70.89
2017-09-06T14:20:50.480Z,70.41
2017-09-06T14:22:01.184Z,70.6
2017-09-06T14:23:11.667Z,70.98
2017-09-06T14:24:21.523Z,71.56
2017-09-06T14:25:31.691Z,70.89
2017-09-06T14:26:42.546Z,71.76
2017-09-06T14:27:52.826Z,71.28
2017-09-06T14:29:03.518Z,71.85
2017-09-06T14:30:14.062Z,71.85
2017-09-06T14:31:24.636Z,70.98
2017-09-06T14:32:34.903Z,69.87
2017-09-06T14:33:45.484Z,69.48
2017-09-06T14:34:55.994Z,69.38
2017-09-06T14:36:06.600Z,68.61
2017-09-06T14:37:17.202Z,67.55
2017-09-06T14:38:27.927Z,67.16
2017-09-06T14:39:38.093Z,66.78
2017-09-06T14:40:48.590Z,66.39
2017-09-06T14:41:59.085Z,66.78
2017-09-06T14:43:09.606Z,67.07
2017-09-06T14:44:20.322Z,66.3
2017-09-06T14:45:30.480Z,66.49
2017-09-06T14:46:41.274Z,65.91
2017-09-06T14:47:51.754Z,65.91
2017-09-06T14:49:02.895Z,65.56
2017-09-06T14:50:13.700Z,64.47
2017-09-06T14:51:24.223Z,62.54
2017-09-06T14:52:34.745Z,61.96
2017-09-06T14:53:45.220Z,62.54
2017-09-06T14:54:55.679Z,62.54
2017-09-06T14:56:06.418Z,62.83
2017-09-06T14:57:17.070Z,63.12
2017-09-06T14:58:27.348Z,63.41
2017-09-06T14:59:37.829Z,63.12
2017-09-06T15:00:48.302Z,63.79
2017-09-06T15:01:59.051Z,62.83
2017-09-06T15:03:09.547Z,61.96
2017-09-06T15:04:20.099Z,61.19
2017-09-06T15:05:30.571Z,61.96
2017-09-06T15:06:42.034Z,60.2
2017-09-06T15:07:52.486Z,60.68
2017-09-06T15:09:02.781Z,60.39
2017-09-06T15:10:13.524Z,61.07
2017-09-06T15:11:23.994Z,60.68
2017-09-06T15:12:34.068Z,60.49
2017-09-06T15:13:44.801Z,61.16